Aérodrome :
LOGIN :

S'inscrire | Disclaimer

   EN    FR    IT 

 










Légende :    VFR   VFR Marginal   IFR   IFR Intensif   IFR Très Intensif
Visi : 
Plafond : 
>= 8 km
>= 3000ft
5 à 8 km
1000 à 3000 ft
1500m à 5 km
500 à 1000 ft
800 à 1500m
200 à 500 ft
< 800m
< 200 ft
Symboles :   Orages  Brouillard  Fortes neiges  Fortes précipitations  Vent > 20 kt
SIGMETs :   Divers  Orages  Givrage  Turbulence  Onde Orograph.  Cendres Volcan.






- Altitude de l'aérodrome : 49 ft
- Code IATA : GLZ


EHGR - Gilze-Rijen Airbase

DERNIER METAR :
  • 172155Z AUTO 24011KT 210V280 9999 FEW020 OVC190 08/05 Q1015 BLU

METARs EXPIRÉS :
  • 172143Z AUTO 24013KT 9999 FEW019 SCT055 08/05 Q1015 BLU
  • 172126Z AUTO 24011KT 210V280 9999 BKN018 BKN021 BKN042 08/05 Q1015 WHT 22012KT 9999 SCT023 BKN040 TEMPO 24020G33KT 4500 SHRAGS FEW012 SCT018CB BKN030
  • 172119Z AUTO 24013KT 210V280 9999 FEW015CB BKN017 OVC055 08/05 Q1014 WHT 22012KT 9999 SCT023 BKN040 TEMPO 24020G33KT 4500 SHRAGS FEW012 SCT018CB BKN030
  • 172055Z AUTO 24013KT 200V270 9999 BKN018 BKN046 OVC057 08/05 Q1014 WHT 22012KT 9999 SCT023 BKN040 TEMPO 24020G33KT 4500 SHRAGS FEW012 SCT018CB BKN030
  • 172025Z AUTO 24012KT 210V270 9999 FEW020 SCT023 BKN050 08/05 Q1014 WHT 22012KT 9999 SCT023 BKN040 TEMPO 24020G33KT 4500 SHRAGS FEW012 SCT018CB BKN030
  • 172007Z AUTO 24013G25KT 200V270 9999 SCT022 BKN044 OVC063 08/05 Q1013 WHT 22012KT 9999 SCT023 BKN040 TEMPO 24020G33KT 4500 SHRAGS FEW012 SCT018CB BKN030
  • 171955Z AUTO 24011KT 200V280 9999 FEW015CB SCT019 BKN026 08/05 Q1013 RERA WHT 22012KT 9999 SCT023 BKN040 TEMPO 24020G33KT 4500 SHRAGS FEW012 SCT018CB BKN030
  • 171941Z AUTO 23010G21KT 200V270 9999 FEW015CB SCT017 BKN020 BKN025 08/05 Q1013 WHT 22012KT 9999 SCT023 BKN040 TEMPO 24020G33KT 4500 SHRAGS FEW012 SCT018CB BKN030
  • 171931Z AUTO 22013G23KT 180V270 7000 RA FEW015CB SCT023 BKN037 08/06 Q1013 WHT 22012KT 9999 SCT023 BKN040 TEMPO 24020G33KT 4500 SHRAGS FEW012 SCT018CB BKN030

TAF TAF EHGR
Valide du 17 à 18h jusqu'au 18 à 06h UTC


171702Z 1718/1806 22013G23KT 9999 SCT025 BKN040
TEMPO 1718/1724 23018G28KT FEW012 SCT020CB BKN025
PROB30
TEMPO 1718/1721 24020G32KT 4000 SHRAGS TSRAGS SCT012 BKN018CB



MET'MAP, la Météo Aéronautique d'un coup d'oeil ! - Copyright ORBIFLY Décembre 2007 - Disclaimer

ORBIFLY MET'MAP TEAM :

Programmation & Développement : Alexandra Zaïnal
Sur une idée originale de : Baudouin d'Aumeries
Assistance à la programmation : Marc-Olivier Méhu
Soutien technique & logistique : Manuel Goepfert

Contact : metmap@orbifly.com




SOURCES & CREDITS :

   NOAA